Time;durP1;ratioP1;P1;durP2;ratioP2;P2;SDS_P1;SDS_P2;PMS_P1;PMS_P2;Temp;Humidity;BMP_temperature;BMP_pressure;BME280_temperature;BME280_humidity;BME280_pressure;Samples;Min_cycle;Max_cycle;Signal;HPM_P1;HPM_P2
2022/02/12 00:01:58;;;;;;;2.50;0.90;;;18.80;73.40;;;;;;4973031;28;96381;-60
2022/02/12 00:04:27;;;;;;;2.45;1.00;;;18.80;73.20;;;;;;4970541;28;95273;-60
2022/02/12 00:06:58;;;;;;;2.75;1.25;;;18.80;73.20;;;;;;4979029;28;96198;-59
2022/02/12 00:09:30;;;;;;;2.63;1.42;;;18.80;73.30;;;;;;4984575;28;96584;-60
2022/02/12 00:12:02;;;;;;;5.60;1.15;;;18.90;73.30;;;;;;4978875;28;95925;-60
2022/02/12 00:14:32;;;;;;;1.65;0.80;;;18.90;73.20;;;;;;4977694;28;95402;-60
2022/02/12 00:17:02;;;;;;;6.43;1.15;;;18.90;73.20;;;;;;4970980;28;95532;-60
2022/02/12 00:19:32;;;;;;;3.03;1.25;;;18.90;73.20;;;;;;4974940;28;98737;-59
2022/02/12 00:22:04;;;;;;;1.55;0.60;;;18.90;73.10;;;;;;4975068;28;95772;-59
2022/02/12 00:24:35;;;;;;;1.65;0.80;;;18.90;73.00;;;;;;4982946;28;95355;-59
2022/02/12 00:27:06;;;;;;;;;;;19.00;73.10;;;;;;4980612;28;95294;-59
2022/02/12 00:29:38;;;;;;;1.60;1.10;;;19.00;73.00;;;;;;4987236;28;95585;-60
2022/02/12 00:32:12;;;;;;;1.83;0.50;;;19.10;73.00;;;;;;4956699;28;96976;-60
2022/02/12 00:34:43;;;;;;;1.30;0.90;;;19.10;73.00;;;;;;4970523;28;95862;-59
2022/02/12 00:37:14;;;;;;;1.05;0.73;;;19.10;72.90;;;;;;4954942;28;96522;-59
2022/02/12 00:39:45;;;;;;;1.65;0.70;;;19.20;72.90;;;;;;4954091;28;95272;-60
2022/02/12 00:42:14;;;;;;;2.30;0.90;;;19.20;72.80;;;;;;4968452;28;95876;-57
2022/02/12 00:44:45;;;;;;;4.25;0.80;;;19.20;72.70;;;;;;4964977;28;95960;-59
2022/02/12 00:47:16;;;;;;;;;;;19.20;72.70;;;;;;4963470;28;99206;-60
2022/02/12 00:49:47;;;;;;;1.95;0.60;;;19.30;72.70;;;;;;4965529;28;95686;-60
2022/02/12 00:52:22;;;;;;;2.05;0.93;;;19.30;72.60;;;;;;4974804;28;96579;-60
2022/02/12 00:54:54;;;;;;;0.88;0.57;;;19.40;72.60;;;;;;4957958;28;95745;-60
2022/02/12 00:57:25;;;;;;;0.70;0.70;;;19.40;72.50;;;;;;4953105;28;95731;-63
2022/02/12 00:59:57;;;;;;;1.65;0.88;;;19.40;72.50;;;;;;4966338;28;95408;-61
2022/02/12 01:02:28;;;;;;;1.33;0.70;;;19.50;72.50;;;;;;4960771;28;95964;-59
2022/02/12 01:04:58;;;;;;;;;;;19.50;72.50;;;;;;4963326;28;95856;-60
2022/02/12 01:07:28;;;;;;;1.13;0.70;;;19.50;72.50;;;;;;4957298;28;95240;-59
2022/02/12 01:09:58;;;;;;;1.08;0.75;;;19.50;72.30;;;;;;4956841;28;97729;-59
2022/02/12 01:12:28;;;;;;;1.58;0.82;;;19.50;72.00;;;;;;4960260;28;97729;-60
2022/02/12 01:14:57;;;;;;;4.47;1.55;;;19.40;71.40;;;;;;4955617;28;95555;-60
2022/02/12 01:17:30;;;;;;;1.00;0.80;;;19.40;71.40;;;;;;4970410;28;97256;-59
2022/02/12 01:20:01;;;;;;;0.95;0.68;;;19.40;70.80;;;;;;4978376;28;96387;-58
2022/02/12 01:22:31;;;;;;;4.97;0.73;;;19.40;70.60;;;;;;4980201;28;95844;-58
2022/02/12 01:25:02;;;;;;;;;;;19.40;70.20;;;;;;4973409;28;95784;-60
2022/02/12 01:27:33;;;;;;;4.32;1.00;;;19.40;69.20;;;;;;4972488;28;95686;-59
2022/02/12 01:30:07;;;;;;;2.10;0.95;;;19.40;69.30;;;;;;4970472;28;95759;-60
2022/02/12 01:32:39;;;;;;;2.17;0.63;;;19.40;68.70;;;;;;4979099;28;95949;-57
2022/02/12 01:35:12;;;;;;;3.90;0.90;;;19.40;68.40;;;;;;4975934;28;95929;-59
2022/02/12 01:37:43;;;;;;;2.78;0.80;;;19.40;67.50;;;;;;4970632;28;95801;-59
2022/02/12 01:40:14;;;;;;;2.38;0.90;;;19.40;67.70;;;;;;4974699;28;96116;-58
2022/02/12 01:42:44;;;;;;;3.40;0.88;;;19.40;67.10;;;;;;4973658;28;96797;-57
2022/02/12 01:45:14;;;;;;;3.80;0.75;;;19.40;67.10;;;;;;4974003;28;95847;-60
2022/02/12 01:47:45;;;;;;;1.17;0.73;;;19.50;66.60;;;;;;4979234;28;95276;-56
2022/02/12 01:50:19;;;;;;;1.50;0.75;;;19.50;66.30;;;;;;4990858;28;95534;-59
2022/02/12 01:52:51;;;;;;;2.40;0.52;;;19.50;66.10;;;;;;4981489;28;95853;-58
2022/02/12 01:55:22;;;;;;;3.00;0.75;;;19.50;66.50;;;;;;4977581;28;95758;-58
2022/02/12 01:57:54;;;;;;;1.35;0.60;;;19.60;66.90;;;;;;4975371;28;95980;-57
2022/02/12 02:00:26;;;;;;;0.77;0.60;;;19.70;67.20;;;;;;4971694;28;95696;-58
2022/02/12 02:02:57;;;;;;;0.73;0.60;;;19.70;68.10;;;;;;4981403;28;96101;-54
2022/02/12 02:05:27;;;;;;;2.40;0.65;;;19.80;68.80;;;;;;4980321;28;95856;-57
2022/02/12 02:07:58;;;;;;;2.25;0.57;;;19.80;68.10;;;;;;4982356;28;95852;-57
2022/02/12 02:10:30;;;;;;;1.70;0.50;;;19.80;67.30;;;;;;4976054;28;95700;-59
2022/02/12 02:13:00;;;;;;;;;;;19.80;66.60;;;;;;4962164;28;96776;-60
2022/02/12 02:15:30;;;;;;;1.05;0.50;;;19.80;67.10;;;;;;4975405;28;95778;-58
2022/02/12 02:18:00;;;;;;;0.52;0.52;;;19.90;67.10;;;;;;4975850;28;95734;-59
2022/02/12 02:20:31;;;;;;;1.55;0.70;;;19.90;66.10;;;;;;4976054;28;95764;-59
2022/02/12 02:23:02;;;;;;;1.15;0.50;;;19.90;65.80;;;;;;4974656;28;95811;-56
2022/02/12 02:25:34;;;;;;;;;;;20.00;65.50;;;;;;4980911;28;96076;-57
2022/02/12 02:28:06;;;;;;;2.47;0.73;;;20.00;64.90;;;;;;4970710;28;96257;-58
2022/02/12 02:30:42;;;;;;;2.47;0.70;;;20.00;64.70;;;;;;4969871;28;97484;-57
2022/02/12 02:33:12;;;;;;;0.88;0.63;;;20.00;64.40;;;;;;4970703;28;95898;-59
2022/02/12 02:35:43;;;;;;;0.70;0.50;;;20.10;64.40;;;;;;4969964;28;96036;-57
2022/02/12 02:38:17;;;;;;;2.03;0.70;;;20.10;64.10;;;;;;4976070;28;95848;-58
2022/02/12 02:40:49;;;;;;;1.20;0.68;;;20.20;63.90;;;;;;4972459;28;95519;-56
2022/02/12 02:43:22;;;;;;;1.98;0.47;;;20.20;63.90;;;;;;4973606;28;96486;-58
2022/02/12 02:45:55;;;;;;;2.90;0.80;;;20.20;63.80;;;;;;4967392;28;99116;-59
2022/02/12 02:48:27;;;;;;;1.52;0.75;;;20.20;63.40;;;;;;4983276;28;95780;-60
2022/02/12 02:56:38;;;;;;;1.63;0.73;;;20.30;62.90;;;;;;4976198;28;97523;-60
2022/02/12 02:59:09;;;;;;;1.48;0.70;;;20.30;62.60;;;;;;4979319;28;95809;-59
2022/02/12 03:01:39;;;;;;;0.65;0.60;;;20.40;62.30;;;;;;4970361;27;98043;-59
2022/02/12 03:04:10;;;;;;;1.33;0.52;;;20.40;62.20;;;;;;4978046;28;95863;-60
2022/02/12 03:06:41;;;;;;;1.27;0.60;;;20.40;62.60;;;;;;4977124;28;96228;-59
2022/02/12 03:09:10;;;;;;;1.30;0.60;;;20.40;61.80;;;;;;4984370;28;95376;-58
2022/02/12 03:11:40;;;;;;;1.20;0.47;;;20.40;61.60;;;;;;4977398;28;95955;-57
2022/02/12 03:14:10;;;;;;;2.67;0.68;;;20.50;61.50;;;;;;4980659;28;96444;-59
2022/02/12 03:16:41;;;;;;;1.45;0.88;;;20.60;61.70;;;;;;4958932;28;96177;-58
2022/02/12 03:19:11;;;;;;;1.92;0.63;;;20.60;61.40;;;;;;4976213;28;95679;-59
2022/02/12 03:21:42;;;;;;;5.13;0.90;;;20.60;61.50;;;;;;4978904;28;96867;-56
2022/02/12 03:24:14;;;;;;;1.35;0.70;;;20.60;61.20;;;;;;4983046;28;97248;-56
2022/02/12 03:26:46;;;;;;;0.60;0.60;;;20.60;61.20;;;;;;4975196;28;98553;-59
2022/02/12 03:29:18;;;;;;;1.15;0.70;;;20.60;61.10;;;;;;4975068;28;95661;-58
2022/02/12 03:31:51;;;;;;;2.55;0.50;;;20.70;61.10;;;;;;4974569;28;97160;-57
2022/02/12 03:34:22;;;;;;;0.77;0.50;;;20.70;61.00;;;;;;4977703;28;95995;-55
2022/02/12 03:36:52;;;;;;;3.60;0.50;;;20.70;60.90;;;;;;4975081;28;96193;-56
2022/02/12 03:39:24;;;;;;;4.47;0.90;;;20.80;60.80;;;;;;4969050;28;96063;-57
2022/02/12 03:41:54;;;;;;;2.75;0.80;;;20.80;60.70;;;;;;4972347;28;95333;-59
2022/02/12 03:44:24;;;;;;;1.25;0.68;;;20.80;60.70;;;;;;4973727;28;95917;-58
2022/02/12 03:46:56;;;;;;;1.23;0.40;;;20.90;60.60;;;;;;4969958;28;95869;-58
2022/02/12 03:49:28;;;;;;;1.98;0.60;;;20.90;60.50;;;;;;4981153;28;95820;-58
2022/02/12 03:52:00;;;;;;;0.95;0.60;;;20.90;60.40;;;;;;4981161;28;96031;-59
2022/02/12 03:54:33;;;;;;;2.97;0.93;;;21.00;52.90;;;;;;4975710;28;96000;-58
2022/02/12 03:57:03;;;;;;;1.05;0.60;;;21.00;60.30;;;;;;4972795;28;96089;-59
2022/02/12 03:59:34;;;;;;;1.75;0.50;;;21.00;60.30;;;;;;4971396;28;95681;-59
2022/02/12 04:02:06;;;;;;;1.33;0.70;;;21.00;60.10;;;;;;4968173;28;95757;-58
2022/02/12 04:04:36;;;;;;;1.25;0.60;;;21.00;59.90;;;;;;4974994;28;96476;-59
2022/02/12 04:07:06;;;;;;;1.23;0.60;;;21.00;60.00;;;;;;4973908;28;95770;-59
2022/02/12 04:09:36;;;;;;;0.80;0.80;;;21.10;60.00;;;;;;4971324;28;95713;-60
2022/02/12 04:12:06;;;;;;;1.55;0.68;;;21.10;59.80;;;;;;4971583;28;95695;-59
2022/02/12 04:14:36;;;;;;;2.20;1.10;;;21.10;59.90;;;;;;4969738;28;96158;-59
2022/02/12 04:17:06;;;;;;;1.05;0.80;;;21.10;60.00;;;;;;4963727;28;95664;-59
2022/02/12 04:19:39;;;;;;;1.55;0.80;;;21.20;59.90;;;;;;4985225;28;95759;-57
2022/02/12 04:22:10;;;;;;;1.27;0.80;;;21.20;59.70;;;;;;4977061;28;96108;-59
2022/02/12 04:24:44;;;;;;;1.85;0.90;;;21.20;59.60;;;;;;4973189;28;95901;-59
2022/02/12 04:27:15;;;;;;;0.90;0.60;;;21.20;60.20;;;;;;4976333;28;95874;-59
2022/02/12 04:29:46;;;;;;;1.80;0.90;;;21.20;59.50;;;;;;4971053;28;96051;-59
2022/02/12 04:32:17;;;;;;;1.13;0.70;;;21.30;59.40;;;;;;4966147;28;95385;-60
2022/02/12 04:34:52;;;;;;;2.00;0.82;;;21.30;59.30;;;;;;4971943;28;95864;-61
2022/02/12 04:37:24;;;;;;;1.35;1.00;;;21.30;59.20;;;;;;4972587;28;95835;-59
2022/02/12 04:39:56;;;;;;;1.67;0.80;;;21.30;59.00;;;;;;4974608;28;95994;-60
2022/02/12 04:42:25;;;;;;;0.52;0.52;;;21.30;59.70;;;;;;4973385;28;95409;-60
2022/02/12 04:44:56;;;;;;;1.38;0.57;;;21.40;58.80;;;;;;4972534;28;96586;-59
2022/02/12 04:47:29;;;;;;;1.55;0.80;;;21.40;58.50;;;;;;4977233;28;95553;-60
2022/02/12 04:49:59;;;;;;;1.45;0.60;;;21.40;58.30;;;;;;4972650;28;95591;-59
2022/02/12 04:52:29;;;;;;;1.90;1.02;;;21.40;58.10;;;;;;4978969;28;95611;-60
2022/02/12 04:55:01;;;;;;;2.78;0.68;;;21.40;58.10;;;;;;4983025;28;95928;-57
2022/02/12 04:57:35;;;;;;;1.38;0.70;;;21.50;57.80;;;;;;4978259;28;95738;-57
2022/02/12 05:00:06;;;;;;;2.47;0.90;;;21.40;57.80;;;;;;4974298;28;95861;-59
2022/02/12 05:02:37;;;;;;;1.88;0.85;;;21.50;57.60;;;;;;4973387;28;97859;-60
2022/02/12 05:05:09;;;;;;;;;;;21.50;57.40;;;;;;4970157;28;96617;-58
2022/02/12 05:07:42;;;;;;;2.55;0.80;;;21.50;57.20;;;;;;4976901;28;95942;-58
2022/02/12 05:10:12;;;;;;;1.38;0.77;;;21.50;57.10;;;;;;4985805;28;96213;-57
2022/02/12 05:12:42;;;;;;;1.52;1.00;;;21.50;57.00;;;;;;4976773;28;95922;-58
2022/02/12 05:15:13;;;;;;;1.88;0.98;;;21.50;56.80;;;;;;4974515;28;95892;-55
2022/02/12 05:17:42;;;;;;;1.97;1.07;;;21.50;56.60;;;;;;4964391;28;95445;-59
2022/02/12 05:20:14;;;;;;;2.53;0.82;;;21.50;56.60;;;;;;4970371;28;95232;-59
2022/02/12 05:22:44;;;;;;;1.80;0.82;;;21.60;56.60;;;;;;4970217;28;95730;-58
2022/02/12 05:25:18;;;;;;;1.60;1.00;;;21.60;56.40;;;;;;4970224;28;95915;-59
2022/02/12 05:27:49;;;;;;;0.93;0.68;;;21.60;56.20;;;;;;4975995;28;95880;-59
2022/02/12 05:30:21;;;;;;;1.63;1.02;;;21.60;56.70;;;;;;4978054;28;95637;-59
2022/02/12 05:32:52;;;;;;;2.35;1.02;;;21.60;56.70;;;;;;4972670;28;95346;-59
2022/02/12 05:35:23;;;;;;;1.20;0.85;;;21.60;56.70;;;;;;4972640;28;96028;-58
2022/02/12 05:37:54;;;;;;;1.02;0.90;;;21.70;56.60;;;;;;4963632;28;96708;-59
2022/02/12 05:40:26;;;;;;;3.10;0.80;;;21.70;56.20;;;;;;4969695;28;95686;-59
2022/02/12 05:42:55;;;;;;;2.00;0.82;;;21.60;55.90;;;;;;4984866;28;95766;-58
2022/02/12 05:45:25;;;;;;;2.08;0.70;;;21.60;55.80;;;;;;4974348;28;99227;-58
2022/02/12 05:47:55;;;;;;;1.48;0.70;;;21.70;56.10;;;;;;4979677;28;96097;-58
2022/02/12 05:50:27;;;;;;;2.95;0.90;;;21.70;56.00;;;;;;4990566;28;95570;-59
2022/02/12 05:52:57;;;;;;;1.05;0.88;;;21.70;55.90;;;;;;4984502;28;95862;-60
2022/02/12 05:55:28;;;;;;;1.48;1.13;;;21.70;55.70;;;;;;4977339;28;96047;-59
2022/02/12 05:58:00;;;;;;;2.08;1.02;;;21.70;55.50;;;;;;4980226;28;95933;-58
2022/02/12 06:00:31;;;;;;;2.50;0.90;;;21.80;55.40;;;;;;4967408;28;95801;-59
2022/02/12 06:03:03;;;;;;;1.92;1.00;;;21.70;55.30;;;;;;4974319;28;95804;-59
2022/02/12 06:05:33;;;;;;;1.30;1.20;;;21.80;55.30;;;;;;4972574;28;95877;-58
2022/02/12 06:08:05;;;;;;;1.00;0.68;;;21.80;55.40;;;;;;4974249;28;95719;-59
2022/02/12 06:10:34;;;;;;;2.78;1.35;;;21.80;55.10;;;;;;4969768;28;95363;-60
2022/02/12 06:13:05;;;;;;;1.92;0.80;;;21.80;54.90;;;;;;4976323;28;95911;-58
2022/02/12 06:15:39;;;;;;;1.80;1.00;;;21.80;54.90;;;;;;4971065;28;95973;-57
2022/02/12 06:18:09;;;;;;;1.53;0.97;;;21.80;54.70;;;;;;4984657;28;95924;-58
2022/02/12 06:20:40;;;;;;;1.27;0.82;;;21.80;54.70;;;;;;4976472;28;95556;-59
2022/02/12 06:23:11;;;;;;;3.95;0.93;;;21.80;54.70;;;;;;4979374;28;95931;-59
2022/02/12 06:25:42;;;;;;;1.33;0.85;;;21.80;54.50;;;;;;4981297;28;95893;-60
2022/02/12 06:28:16;;;;;;;1.00;0.90;;;21.80;54.60;;;;;;4971697;28;95934;-58
2022/02/12 06:30:47;;;;;;;0.98;0.80;;;21.80;54.30;;;;;;4966791;28;98647;-58
2022/02/12 06:33:18;;;;;;;1.67;0.82;;;21.80;54.30;;;;;;4982228;28;98191;-59
2022/02/12 06:35:49;;;;;;;2.90;0.90;;;21.80;54.10;;;;;;4973962;28;95956;-59
2022/02/12 06:38:20;;;;;;;1.73;0.85;;;21.80;54.10;;;;;;4969043;28;96313;-60
2022/02/12 06:40:51;;;;;;;1.17;0.70;;;21.80;54.10;;;;;;4978017;28;96807;-61
2022/02/12 06:43:21;;;;;;;1.35;0.80;;;21.90;53.90;;;;;;4976418;28;95863;-59
2022/02/12 06:45:51;;;;;;;2.47;0.90;;;21.80;53.80;;;;;;4964635;28;95933;-59
2022/02/12 06:48:21;;;;;;;2.55;0.70;;;21.90;54.60;;;;;;4976182;28;95809;-59
2022/02/12 06:50:51;;;;;;;0.75;0.70;;;21.90;53.60;;;;;;4970600;28;95809;-60
2022/02/12 06:53:22;;;;;;;0.93;0.70;;;21.90;53.70;;;;;;4972960;28;95944;-58
2022/02/12 06:55:53;;;;;;;1.15;1.02;;;21.80;53.50;;;;;;4970570;28;96021;-59
2022/02/12 06:58:24;;;;;;;1.25;0.68;;;21.90;53.60;;;;;;4980932;28;95991;-59
2022/02/12 07:00:54;;;;;;;1.60;0.90;;;21.90;53.50;;;;;;4959983;28;95643;-58
2022/02/12 07:03:26;;;;;;;2.92;0.73;;;21.90;53.60;;;;;;4970474;28;95999;-60
2022/02/12 07:05:56;;;;;;;2.97;1.08;;;21.90;53.70;;;;;;4980278;28;95862;-59
2022/02/12 07:08:26;;;;;;;0.85;0.70;;;21.90;53.50;;;;;;4971274;28;95382;-61
2022/02/12 07:10:58;;;;;;;1.75;0.82;;;21.90;53.50;;;;;;4971690;28;95645;-61
2022/02/12 07:13:28;;;;;;;3.15;1.15;;;21.90;53.50;;;;;;4975187;28;95586;-60
2022/02/12 07:16:01;;;;;;;0.98;0.80;;;21.90;54.10;;;;;;4965126;28;96776;-59
2022/02/12 07:18:33;;;;;;;2.63;1.05;;;21.90;53.30;;;;;;4978791;28;97187;-60
2022/02/12 07:21:06;;;;;;;1.63;1.00;;;22.00;53.50;;;;;;4971393;28;95730;-60
2022/02/12 07:23:37;;;;;;;2.65;1.10;;;22.00;53.40;;;;;;4977051;28;97266;-60
2022/02/12 07:26:10;;;;;;;1.40;0.80;;;22.00;53.20;;;;;;4976549;28;95912;-60
2022/02/12 07:28:42;;;;;;;1.73;1.08;;;22.00;53.30;;;;;;4975333;28;95565;-61
2022/02/12 07:31:16;;;;;;;2.28;1.10;;;22.00;53.20;;;;;;4975215;28;95759;-58
2022/02/12 07:33:47;;;;;;;1.38;1.15;;;22.00;53.30;;;;;;4979904;28;95634;-60
2022/02/12 07:36:17;;;;;;;0.82;0.63;;;22.00;53.20;;;;;;4963032;28;96700;-60
2022/02/12 07:38:48;;;;;;;;;;;22.00;53.10;;;;;;4980508;28;95677;-61
2022/02/12 07:41:18;;;;;;;1.60;1.10;;;22.00;53.10;;;;;;4987364;28;95757;-60
2022/02/12 07:43:48;;;;;;;2.42;0.75;;;22.00;53.00;;;;;;4978142;28;97009;-60
2022/02/12 07:46:18;;;;;;;1.58;1.13;;;22.00;53.00;;;;;;4965923;28;95933;-60
2022/02/12 07:48:48;;;;;;;1.45;0.88;;;22.00;52.90;;;;;;4984326;28;95718;-60
2022/02/12 07:51:17;;;;;;;2.45;0.82;;;22.00;53.10;;;;;;4984336;28;95889;-60
2022/02/12 07:53:47;;;;;;;1.70;1.25;;;22.00;53.10;;;;;;4973359;28;95582;-60
2022/02/12 07:56:19;;;;;;;2.30;1.33;;;22.00;53.30;;;;;;4977903;28;96260;-60
2022/02/12 07:58:49;;;;;;;2.60;1.10;;;22.00;53.50;;;;;;4982681;28;96100;-60
2022/02/12 08:01:20;;;;;;;3.45;1.65;;;22.10;53.80;;;;;;4970040;28;95739;-57
2022/02/12 08:03:52;;;;;;;4.45;1.40;;;22.10;54.00;;;;;;4976874;28;96028;-60
2022/02/12 08:09:19;;;;;;;4.38;1.77;;;22.10;54.40;;;;;;4977025;28;95801;-55
2022/02/12 08:11:55;;;;;;;3.60;1.70;;;22.10;54.50;;;;;;4975723;28;95915;-55
2022/02/12 08:14:27;;;;;;;3.90;1.63;;;22.10;54.60;;;;;;4978547;28;96069;-55
2022/02/12 08:16:57;;;;;;;3.10;1.40;;;22.10;54.80;;;;;;4967436;28;96675;-55
2022/02/12 08:19:27;;;;;;;2.50;1.35;;;22.10;54.80;;;;;;4981160;28;95614;-56
2022/02/12 08:21:57;;;;;;;4.37;2.10;;;22.10;54.90;;;;;;4978154;28;95893;-55
2022/02/12 08:24:29;;;;;;;4.13;1.38;;;22.10;55.00;;;;;;4971254;28;95551;-54
2022/02/12 08:27:01;;;;;;;3.58;1.40;;;22.10;55.00;;;;;;4972979;28;96970;-54
2022/02/12 08:29:32;;;;;;;4.78;1.55;;;22.10;55.40;;;;;;4983735;28;95889;-54
2022/02/12 08:32:04;;;;;;;3.30;1.48;;;22.10;55.80;;;;;;4972165;28;95488;-51
2022/02/12 08:34:36;;;;;;;2.50;1.45;;;22.20;56.40;;;;;;4977702;28;95396;-55
2022/02/12 08:37:08;;;;;;;2.63;1.33;;;22.20;56.90;;;;;;4974858;28;97715;-59
2022/02/12 08:39:41;;;;;;;3.90;1.73;;;22.20;57.20;;;;;;4973318;28;95753;-52
2022/02/12 08:42:12;;;;;;;2.35;1.23;;;22.20;57.80;;;;;;4971913;28;95860;-59
2022/02/12 08:44:42;;;;;;;3.58;1.50;;;22.20;58.20;;;;;;4977224;28;95789;-51
2022/02/12 08:47:13;;;;;;;2.78;1.70;;;22.30;58.60;;;;;;4963249;28;96490;-51
2022/02/12 08:49:44;;;;;;;3.08;1.65;;;22.30;59.00;;;;;;4980017;28;99304;-58
2022/02/12 08:52:14;;;;;;;2.58;1.85;;;22.30;59.40;;;;;;4981241;28;95586;-60
2022/02/12 08:54:44;;;;;;;3.60;1.80;;;22.30;59.70;;;;;;4975369;28;95791;-60
2022/02/12 08:57:16;;;;;;;3.17;1.65;;;22.30;60.20;;;;;;4971447;28;96379;-59
2022/02/12 08:59:46;;;;;;;2.38;1.38;;;22.30;60.40;;;;;;4975277;28;95929;-58
2022/02/12 09:02:18;;;;;;;4.60;1.33;;;22.40;60.80;;;;;;4973739;28;95688;-56
2022/02/12 09:04:49;;;;;;;3.08;1.33;;;22.40;61.00;;;;;;4976646;28;95855;-49
2022/02/12 09:07:25;;;;;;;1.75;1.25;;;22.40;61.30;;;;;;4962480;28;96492;-55
2022/02/12 09:09:58;;;;;;;5.35;1.45;;;22.40;61.70;;;;;;4980325;28;95340;-55
2022/02/12 09:12:36;;;;;;;3.13;1.38;;;22.40;62.10;;;;;;4974028;28;95771;-52
2022/02/12 09:15:07;;;;;;;5.20;1.60;;;22.40;62.40;;;;;;4967529;28;95884;-60
2022/02/12 09:17:41;;;;;;;5.18;1.83;;;22.40;62.60;;;;;;4970921;28;96029;-51
2022/02/12 09:20:13;;;;;;;8.27;2.17;;;22.40;62.80;;;;;;4972561;28;97019;-54
2022/02/12 09:22:43;;;;;;;;;;;22.30;62.80;;;;;;4981413;28;95803;-51
2022/02/12 09:25:14;;;;;;;5.00;2.07;;;22.40;56.00;;;;;;4982516;28;95394;-51
2022/02/12 09:27:46;;;;;;;6.18;2.20;;;22.40;62.90;;;;;;4973424;28;95942;-60
2022/02/12 09:30:17;;;;;;;7.75;2.03;;;22.40;63.00;;;;;;4973483;28;95970;-48
2022/02/12 09:32:50;;;;;;;12.30;1.95;;;22.40;63.20;;;;;;4972602;28;95836;-55
2022/02/12 09:35:22;;;;;;;4.93;1.80;;;22.50;63.30;;;;;;4974440;28;95871;-56
2022/02/12 09:37:54;;;;;;;11.50;2.38;;;22.50;63.20;;;;;;4977844;28;95953;-60
2022/02/12 09:40:27;;;;;;;8.18;2.13;;;22.40;63.20;;;;;;4975635;28;95758;-53
2022/02/12 09:43:15;;;;;;;4.00;1.65;;;22.50;63.20;;;;;;4975659;28;95321;-60
2022/02/12 09:46:05;;;;;;;4.47;2.03;;;22.50;63.30;;;;;;4972798;28;97899;-61
2022/02/12 09:48:36;;;;;;;6.20;2.38;;;22.50;63.20;;;;;;4980028;28;95962;-53
2022/02/12 09:51:06;;;;;;;7.40;2.45;;;22.50;63.20;;;;;;4982621;28;95325;-56
2022/02/12 09:53:37;;;;;;;5.63;2.13;;;22.50;63.10;;;;;;4985442;28;97583;-56
2022/02/12 09:56:08;;;;;;;9.15;2.13;;;22.50;63.10;;;;;;4979520;28;95391;-53
2022/02/12 09:58:38;;;;;;;3.20;1.50;;;22.50;63.20;;;;;;4979163;28;96176;-56
2022/02/12 10:01:10;;;;;;;6.00;2.27;;;22.50;63.10;;;;;;4977339;28;95805;-55
2022/02/12 10:03:43;;;;;;;6.05;2.08;;;22.50;63.10;;;;;;4980397;28;95733;-56
2022/02/12 10:06:15;;;;;;;6.80;1.77;;;22.40;63.10;;;;;;4979442;28;96963;-57
2022/02/12 10:09:05;;;;;;;9.18;2.20;;;22.50;63.10;;;;;;4979102;28;96114;-56
2022/02/12 10:11:50;;;;;;;4.90;1.80;;;22.50;63.10;;;;;;4981394;28;95658;-55
2022/02/12 10:14:24;;;;;;;4.95;1.90;;;22.50;63.10;;;;;;4980377;28;96237;-58
2022/02/12 10:16:57;;;;;;;8.13;1.92;;;22.50;63.00;;;;;;4968777;28;96486;-56
2022/02/12 10:19:41;;;;;;;14.23;3.22;;;22.50;62.80;;;;;;4980974;28;95880;-54
2022/02/12 10:22:16;;;;;;;9.45;2.75;;;22.10;62.70;;;;;;4970903;28;96219;-54
2022/02/12 10:24:52;;;;;;;6.90;2.63;;;21.60;63.80;;;;;;4977996;28;96073;-56
2022/02/12 10:27:26;;;;;;;7.57;2.33;;;21.40;65.30;;;;;;4984780;28;95770;-58
2022/02/12 10:30:02;;;;;;;10.27;2.58;;;21.30;65.30;;;;;;4981014;28;97733;-57
2022/02/12 10:32:34;;;;;;;9.15;2.13;;;21.10;65.30;;;;;;4975377;28;95846;-57
2022/02/12 10:35:10;;;;;;;10.40;2.95;;;20.90;66.80;;;;;;4975998;28;95339;-56
2022/02/12 10:37:45;;;;;;;11.10;2.47;;;20.90;67.00;;;;;;4969998;28;96595;-55
2022/02/12 10:40:17;;;;;;;11.10;2.38;;;20.80;67.00;;;;;;4976915;28;95969;-52
2022/02/12 10:42:51;;;;;;;9.82;2.25;;;20.70;67.30;;;;;;4975814;28;95889;-55
2022/02/12 10:45:26;;;;;;;10.82;2.92;;;20.50;67.80;;;;;;4973120;28;95675;-61
2022/02/12 10:47:57;;;;;;;9.38;2.40;;;20.50;68.40;;;;;;4981121;28;95922;-54
2022/02/12 10:50:32;;;;;;;8.85;2.55;;;20.60;68.10;;;;;;4985008;28;95936;-55
2022/02/12 10:53:07;;;;;;;9.75;2.30;;;20.70;68.10;;;;;;4980138;28;95889;-55
2022/02/12 10:55:39;;;;;;;10.10;2.58;;;20.60;67.80;;;;;;4975304;28;95303;-53
2022/02/12 10:58:13;;;;;;;9.50;2.60;;;20.50;68.30;;;;;;4979181;28;97819;-58
2022/02/12 11:00:44;;;;;;;14.50;3.22;;;20.40;68.00;;;;;;4976560;28;95893;-54
2022/02/12 11:03:16;;;;;;;11.85;2.47;;;20.30;68.50;;;;;;4978718;28;96002;-56
2022/02/12 11:05:52;;;;;;;6.75;2.33;;;20.30;68.80;;;;;;4979003;28;95576;-52
2022/02/12 11:08:25;;;;;;;9.02;2.42;;;20.20;69.30;;;;;;4971360;28;96360;-54
2022/02/12 11:10:55;;;;;;;11.20;3.25;;;20.00;69.40;;;;;;4978355;28;96013;-54
2022/02/12 11:13:25;;;;;;;6.80;2.15;;;19.90;70.00;;;;;;4976626;28;95890;-54
2022/02/12 11:15:55;;;;;;;5.78;1.60;;;19.90;70.20;;;;;;4975563;28;95651;-60
2022/02/12 11:18:27;;;;;;;14.73;3.35;;;19.90;70.50;;;;;;4986828;28;95772;-53
2022/02/12 11:20:59;;;;;;;14.43;2.25;;;19.80;70.40;;;;;;4981174;28;96427;-53
2022/02/12 11:23:30;;;;;;;7.13;2.17;;;19.80;70.90;;;;;;4977188;28;95526;-54
2022/02/12 11:26:05;;;;;;;9.63;2.50;;;19.60;70.80;;;;;;4979627;28;95728;-55
2022/02/12 11:28:37;;;;;;;7.15;2.00;;;19.40;71.80;;;;;;4983731;28;96319;-53
2022/02/12 11:31:21;;;;;;;9.07;2.25;;;19.30;72.20;;;;;;4989584;28;99784;-53
2022/02/12 11:34:14;;;;;;;10.38;2.33;;;19.00;72.60;;;;;;4981276;28;95861;-56
2022/02/12 11:36:48;;;;;;;17.48;2.28;;;19.10;72.50;;;;;;4979214;28;95971;-61
2022/02/12 11:39:28;;;;;;;7.68;2.50;;;18.80;73.50;;;;;;4981075;28;95257;-61
2022/02/12 11:42:07;;;;;;;11.05;2.22;;;18.70;74.10;;;;;;4976367;28;96013;-55
2022/02/12 11:44:48;;;;;;;12.05;2.15;;;18.50;74.60;;;;;;4975447;28;98286;-61
2022/02/12 11:47:24;;;;;;;11.48;2.45;;;18.40;75.10;;;;;;4966180;28;95822;-64
2022/02/12 11:50:15;;;;;;;13.80;3.20;;;18.40;75.90;;;;;;4983163;28;95712;-63
2022/02/12 11:52:46;;;;;;;8.73;2.65;;;18.60;75.90;;;;;;4975869;28;95919;-62
2022/02/12 11:55:34;;;;;;;8.23;2.40;;;18.70;75.40;;;;;;4983472;28;96038;-63
2022/02/12 11:58:07;;;;;;;13.18;2.42;;;18.80;74.50;;;;;;4976786;28;95877;-63
2022/02/12 12:00:39;;;;;;;12.05;2.65;;;18.60;74.80;;;;;;4969450;28;97855;-62
2022/02/12 12:03:11;;;;;;;8.02;2.53;;;18.40;75.40;;;;;;4984207;28;95967;-63
2022/02/12 12:05:41;;;;;;;9.30;2.13;;;18.30;76.10;;;;;;4979634;28;95885;-60
2022/02/12 12:08:15;;;;;;;12.82;2.60;;;18.40;76.60;;;;;;4980036;28;95199;-61
2022/02/12 12:10:51;;;;;;;7.93;2.00;;;18.60;75.50;;;;;;4985587;28;97600;-62
2022/02/12 12:13:26;;;;;;;9.93;2.95;;;18.40;75.90;;;;;;4974732;28;96450;-62
2022/02/12 12:16:11;;;;;;;9.70;2.60;;;18.30;76.20;;;;;;4974462;28;96007;-62
2022/02/12 12:18:49;;;;;;;9.82;2.33;;;18.40;76.70;;;;;;4976317;28;96041;-61
2022/02/12 12:21:20;;;;;;;12.60;2.70;;;18.20;76.20;;;;;;5001462;28;95683;-61
2022/02/12 12:23:59;;;;;;;11.20;2.67;;;18.20;77.10;;;;;;4977005;28;95961;-61
2022/02/12 12:26:41;;;;;;;8.45;2.05;;;18.00;76.70;;;;;;4972247;28;95521;-62
2022/02/12 12:32:13;;;;;;;10.27;2.38;;;17.70;78.70;;;;;;4971225;28;95443;-62
2022/02/12 12:35:03;;;;;;;12.45;2.67;;;17.50;79.10;;;;;;4975022;28;96023;-62
2022/02/12 12:37:56;;;;;;;10.90;3.35;;;17.50;79.30;;;;;;4962951;28;96008;-62
2022/02/12 12:40:32;;;;;;;11.15;2.63;;;17.50;79.20;;;;;;4977288;28;95289;-61
2022/02/12 12:43:08;;;;;;;9.57;2.28;;;17.40;80.00;;;;;;4975667;28;95845;-63
2022/02/12 12:45:43;;;;;;;10.63;2.17;;;17.50;79.90;;;;;;4975414;28;96733;-62
2022/02/12 12:48:14;;;;;;;10.80;2.97;;;17.50;79.60;;;;;;4978441;28;95424;-62
2022/02/12 12:50:44;;;;;;;9.38;2.60;;;17.60;79.00;;;;;;4978212;28;95363;-62
2022/02/12 12:53:15;;;;;;;14.55;3.17;;;17.50;79.30;;;;;;4978645;28;95887;-64
2022/02/12 12:55:49;;;;;;;11.38;2.65;;;17.50;79.30;;;;;;4975056;28;96321;-62
2022/02/12 12:58:20;;;;;;;8.50;1.90;;;17.30;79.50;;;;;;4972983;28;95141;-62
2022/02/12 13:01:05;;;;;;;11.43;2.83;;;17.30;80.10;;;;;;4971071;28;96644;-63
2022/02/12 13:03:46;;;;;;;11.77;2.20;;;17.30;79.90;;;;;;4974069;28;95657;-63
2022/02/12 13:06:16;;;;;;;12.23;2.10;;;17.20;80.30;;;;;;4983149;28;96260;-62
2022/02/12 13:08:46;;;;;;;11.82;2.80;;;17.10;80.90;;;;;;4972424;28;96543;-63
2022/02/12 13:11:33;;;;;;;11.23;2.78;;;17.00;81.60;;;;;;4986598;28;95932;-62
2022/02/12 13:14:10;;;;;;;11.75;3.00;;;17.40;81.90;;;;;;4974373;28;95717;-61
2022/02/12 13:16:44;;;;;;;8.57;2.35;;;17.80;80.30;;;;;;4969702;28;95837;-59
2022/02/12 13:19:20;;;;;;;10.00;2.10;;;17.80;78.60;;;;;;4976428;28;96197;-60
2022/02/12 13:21:55;;;;;;;9.70;2.55;;;17.90;80.00;;;;;;4978803;28;95783;-60
2022/02/12 13:24:36;;;;;;;7.28;2.38;;;18.10;79.60;;;;;;4977222;28;95677;-60
2022/02/12 13:27:11;;;;;;;11.23;1.95;;;18.30;79.00;;;;;;4987099;28;96040;-60